createdAt,value
2023-05-16T00:00:53.438Z,13.21
2023-05-16T00:03:21.458Z,13.21
2023-05-16T00:05:48.883Z,13.22
2023-05-16T00:08:16.328Z,13.26
2023-05-16T00:10:44.066Z,13.27
2023-05-16T00:13:11.257Z,13.24
2023-05-16T00:15:38.986Z,13.23
2023-05-16T00:18:06.510Z,13.19
2023-05-16T00:20:34.940Z,13.17
2023-05-16T00:23:02.314Z,13.21
2023-05-16T00:25:29.594Z,13.17
2023-05-16T00:27:57.069Z,13.16
2023-05-16T00:30:24.630Z,13.14
2023-05-16T00:32:52.480Z,13.13
2023-05-16T00:35:19.768Z,13.14
2023-05-16T00:37:47.005Z,13.09
2023-05-16T00:40:15.512Z,13.04
2023-05-16T00:42:42.985Z,13.04
2023-05-16T00:45:10.862Z,13.00
2023-05-16T00:47:38.122Z,13.01
2023-05-16T00:50:06.931Z,13.00
2023-05-16T00:52:34.472Z,12.99
2023-05-16T00:55:04.210Z,12.91
2023-05-16T00:57:33.283Z,12.99
2023-05-16T01:00:00.700Z,12.93
2023-05-16T01:02:29.708Z,12.87
2023-05-16T01:04:57.417Z,12.84
2023-05-16T01:07:24.724Z,12.88
2023-05-16T01:09:52.306Z,12.86
2023-05-16T01:12:48.908Z,12.82
2023-05-16T01:15:24.013Z,12.80
2023-05-16T01:18:02.385Z,12.86
2023-05-16T01:20:49.561Z,12.82
2023-05-16T01:23:59.298Z,12.79
2023-05-16T01:26:28.630Z,12.79
2023-05-16T01:28:56.543Z,12.79
2023-05-16T01:31:24.560Z,12.82
2023-05-16T01:33:52.261Z,12.81
2023-05-16T01:36:55.289Z,12.81
2023-05-16T01:39:25.540Z,12.79
2023-05-16T01:42:00.072Z,12.78
2023-05-16T01:44:35.530Z,12.77
2023-05-16T01:47:10.002Z,12.83
2023-05-16T01:49:45.724Z,12.86
2023-05-16T01:52:19.863Z,12.84
2023-05-16T01:54:49.670Z,12.96
2023-05-16T01:57:18.240Z,12.99
2023-05-16T01:59:47.193Z,13.00
2023-05-16T02:02:14.517Z,13.08
2023-05-16T02:04:41.785Z,13.07
2023-05-16T02:07:09.346Z,13.10
2023-05-16T02:09:38.480Z,13.16
2023-05-16T02:12:08.057Z,13.21
2023-05-16T02:14:35.275Z,13.27
2023-05-16T02:17:02.639Z,13.38
2023-05-16T02:19:30.064Z,13.43
2023-05-16T02:21:57.559Z,13.42
2023-05-16T02:24:24.788Z,13.51
2023-05-16T02:26:52.351Z,13.42
2023-05-16T02:29:19.633Z,13.43
2023-05-16T02:31:47.371Z,13.54
2023-05-16T02:34:15.120Z,13.63
2023-05-16T02:36:43.000Z,13.64
2023-05-16T02:39:10.763Z,13.59
2023-05-16T02:41:38.097Z,13.64
2023-05-16T02:44:05.832Z,13.68
2023-05-16T02:46:37.144Z,13.71
2023-05-16T02:49:04.694Z,13.84
2023-05-16T02:51:32.018Z,13.85
2023-05-16T02:54:01.330Z,13.84
2023-05-16T02:56:28.720Z,13.85
2023-05-16T02:58:56.654Z,13.88
2023-05-16T03:01:24.342Z,13.89
2023-05-16T03:03:51.879Z,13.91
2023-05-16T03:06:19.322Z,13.91
2023-05-16T03:08:46.695Z,13.91
2023-05-16T03:11:15.167Z,14.02
2023-05-16T03:13:42.748Z,14.11
2023-05-16T03:16:10.093Z,14.06
2023-05-16T03:18:37.407Z,14.12
2023-05-16T03:21:05.764Z,14.17
2023-05-16T03:23:33.220Z,14.27
2023-05-16T03:26:00.686Z,14.29
2023-05-16T03:28:28.044Z,14.33
2023-05-16T03:30:55.593Z,14.28
2023-05-16T03:33:23.936Z,14.21
2023-05-16T03:35:52.447Z,14.30
2023-05-16T03:38:19.682Z,14.34
2023-05-16T03:40:48.718Z,14.41
2023-05-16T03:43:16.020Z,14.46
2023-05-16T03:45:43.657Z,14.36
2023-05-16T03:48:11.301Z,14.36
2023-05-16T03:50:40.327Z,14.36
2023-05-16T03:53:09.361Z,14.46
2023-05-16T03:55:36.747Z,14.53
2023-05-16T03:58:03.973Z,14.54
2023-05-16T04:00:31.272Z,14.49
2023-05-16T04:02:58.631Z,14.59
2023-05-16T04:05:26.299Z,14.58
2023-05-16T04:07:53.886Z,14.63
2023-05-16T04:10:21.150Z,14.64
2023-05-16T04:12:48.419Z,14.71
2023-05-16T04:15:15.722Z,14.84
2023-05-16T04:17:43.222Z,14.96
2023-05-16T04:20:11.118Z,15.07
2023-05-16T04:22:38.223Z,15.07
2023-05-16T04:25:05.460Z,15.13
2023-05-16T04:27:32.551Z,15.24
2023-05-16T04:30:00.242Z,15.14
2023-05-16T04:32:29.252Z,15.20
2023-05-16T04:34:56.630Z,15.28
2023-05-16T04:37:23.897Z,15.43
2023-05-16T04:39:51.783Z,15.45
2023-05-16T04:42:18.949Z,15.44
2023-05-16T04:44:48.072Z,15.50
2023-05-16T04:47:15.510Z,15.56
2023-05-16T04:49:42.865Z,15.74
2023-05-16T04:52:10.246Z,15.82
2023-05-16T04:54:39.575Z,15.93
2023-05-16T04:57:07.506Z,15.93
2023-05-16T04:59:38.880Z,15.87
2023-05-16T05:02:07.984Z,15.93
2023-05-16T05:04:35.800Z,15.99
2023-05-16T05:07:03.492Z,16.07
2023-05-16T05:09:35.225Z,16.10
2023-05-16T05:12:18.836Z,16.20
2023-05-16T05:14:48.189Z,16.32
2023-05-16T05:17:16.967Z,16.37
2023-05-16T05:19:44.747Z,16.43
2023-05-16T05:22:13.806Z,16.58
2023-05-16T05:24:41.465Z,16.53
2023-05-16T05:27:08.957Z,16.51
2023-05-16T05:29:36.645Z,16.55
2023-05-16T05:32:04.602Z,16.55
2023-05-16T05:34:32.311Z,16.57
2023-05-16T05:37:00.324Z,16.55
2023-05-16T05:39:27.942Z,16.57
2023-05-16T05:41:59.746Z,16.56
2023-05-16T05:44:28.406Z,16.50
2023-05-16T05:46:59.847Z,16.63
2023-05-16T05:49:28.157Z,16.70
2023-05-16T05:51:56.436Z,16.71
2023-05-16T05:54:25.410Z,16.86
2023-05-16T05:56:53.021Z,16.84
2023-05-16T05:59:20.775Z,16.89
2023-05-16T06:01:52.833Z,16.94
2023-05-16T06:04:24.622Z,17.02
2023-05-16T06:06:52.665Z,17.08
2023-05-16T06:09:21.930Z,17.14
2023-05-16T06:11:50.631Z,17.20
2023-05-16T06:14:18.267Z,17.27
2023-05-16T06:16:47.689Z,17.28
2023-05-16T06:19:16.777Z,17.44
2023-05-16T06:21:44.491Z,17.45
2023-05-16T06:24:12.911Z,17.45
2023-05-16T06:26:40.482Z,17.37
2023-05-16T06:29:09.429Z,17.42
2023-05-16T06:31:38.413Z,17.45
2023-05-16T06:34:08.221Z,17.57
2023-05-16T06:36:37.233Z,17.63
2023-05-16T06:39:08.307Z,17.70
2023-05-16T06:41:36.149Z,17.62
2023-05-16T06:44:05.862Z,17.70
2023-05-16T06:46:34.868Z,17.70
2023-05-16T06:49:03.747Z,17.76
2023-05-16T06:51:31.953Z,17.90
2023-05-16T06:54:04.076Z,18.01
2023-05-16T06:56:32.057Z,18.07
2023-05-16T06:59:02.168Z,18.17
2023-05-16T07:01:30.040Z,18.24
2023-05-16T07:04:02.667Z,18.21
2023-05-16T07:06:33.029Z,18.24
2023-05-16T07:09:01.606Z,18.27
2023-05-16T07:11:29.252Z,18.29
2023-05-16T07:13:56.904Z,18.34
2023-05-16T07:16:24.584Z,18.39
2023-05-16T07:18:52.764Z,18.41
2023-05-16T07:21:20.229Z,18.41
2023-05-16T07:23:47.959Z,18.44
2023-05-16T07:26:15.660Z,18.57
2023-05-16T07:28:44.107Z,18.56
2023-05-16T07:31:12.269Z,18.60
2023-05-16T07:33:41.318Z,18.67
2023-05-16T07:36:16.773Z,18.71
2023-05-16T07:38:49.922Z,18.87
2023-05-16T07:41:22.122Z,18.96
2023-05-16T07:43:51.360Z,18.87
2023-05-16T07:46:35.713Z,18.80
2023-05-16T07:49:05.126Z,18.75
2023-05-16T07:51:36.658Z,18.72
2023-05-16T07:54:04.386Z,18.80
2023-05-16T07:56:32.028Z,18.71
2023-05-16T07:59:09.878Z,18.83
2023-05-16T08:01:41.745Z,18.86
2023-05-16T08:04:10.246Z,19.02
2023-05-16T08:06:38.003Z,18.99
2023-05-16T08:09:07.320Z,19.00
2023-05-16T08:11:34.823Z,19.09
2023-05-16T08:14:02.429Z,19.22
2023-05-16T08:16:30.085Z,19.27
2023-05-16T08:18:57.965Z,19.28
2023-05-16T08:21:26.533Z,19.21
2023-05-16T08:23:54.944Z,19.17
2023-05-16T08:26:39.675Z,19.19
2023-05-16T08:29:34.791Z,19.33
2023-05-16T08:32:03.716Z,19.17
2023-05-16T08:34:34.363Z,19.03
2023-05-16T08:37:02.064Z,19.08
2023-05-16T08:39:31.466Z,19.05
2023-05-16T08:42:00.434Z,19.02
2023-05-16T08:44:29.413Z,18.98
2023-05-16T08:47:11.324Z,18.94
2023-05-16T08:49:41.864Z,19.01
2023-05-16T08:52:11.192Z,19.09
2023-05-16T08:54:40.390Z,19.17
2023-05-16T08:57:10.623Z,19.19
2023-05-16T08:59:39.938Z,19.22
2023-05-16T09:02:09.912Z,19.31
2023-05-16T09:04:41.707Z,19.41
2023-05-16T09:07:09.179Z,19.40
2023-05-16T09:09:38.120Z,19.43
2023-05-16T09:12:05.663Z,19.43
2023-05-16T09:14:33.312Z,19.45
2023-05-16T09:17:28.567Z,19.46
2023-05-16T09:20:18.847Z,19.53
2023-05-16T09:22:54.862Z,19.66
2023-05-16T09:28:03.139Z,19.81
2023-05-16T09:30:40.107Z,19.79
2023-05-16T09:33:08.468Z,19.90
2023-05-16T09:35:45.355Z,19.89
2023-05-16T09:38:18.453Z,19.84
2023-05-16T09:40:47.522Z,19.91
2023-05-16T09:43:17.647Z,19.94
2023-05-16T09:45:49.598Z,20.07
2023-05-16T09:48:18.986Z,20.10
2023-05-16T09:50:53.644Z,20.13
2023-05-16T09:53:32.826Z,20.03
2023-05-16T09:56:14.372Z,19.94
2023-05-16T09:58:43.927Z,20.01
2023-05-16T10:01:12.007Z,20.01
2023-05-16T10:03:42.844Z,20.04
2023-05-16T10:06:29.548Z,20.02
2023-05-16T10:08:57.219Z,20.05
2023-05-16T10:11:30.756Z,20.13
2023-05-16T10:14:01.907Z,20.17
2023-05-16T10:16:29.759Z,20.21
2023-05-16T10:18:57.853Z,20.26
2023-05-16T10:21:28.860Z,20.34
2023-05-16T10:23:59.037Z,20.21
2023-05-16T10:26:28.128Z,20.24
2023-05-16T10:28:56.726Z,20.17
2023-05-16T10:31:25.143Z,20.24
2023-05-16T10:33:53.657Z,20.22
2023-05-16T10:36:25.434Z,20.34
2023-05-16T10:38:54.357Z,20.36
2023-05-16T10:41:22.363Z,20.45
2023-05-16T10:44:03.232Z,20.46
2023-05-16T10:46:32.475Z,20.45
2023-05-16T10:49:20.173Z,20.37
2023-05-16T10:52:03.491Z,20.43
2023-05-16T10:54:41.030Z,20.41
2023-05-16T10:57:23.043Z,20.43
2023-05-16T10:59:56.617Z,20.46
2023-05-16T11:02:33.193Z,20.43
2023-05-16T11:05:11.974Z,20.40
2023-05-16T11:08:04.657Z,20.31
2023-05-16T11:10:32.929Z,20.26
2023-05-16T11:13:08.381Z,20.23
2023-05-16T11:15:36.148Z,20.17
2023-05-16T11:18:07.409Z,20.15
2023-05-16T11:20:37.802Z,20.18
2023-05-16T11:23:17.648Z,20.32
2023-05-16T11:25:59.107Z,20.40
2023-05-16T11:28:28.434Z,20.40
2023-05-16T11:30:58.827Z,20.26
2023-05-16T11:33:27.993Z,20.17
2023-05-16T11:38:44.174Z,20.13
2023-05-16T11:41:12.098Z,20.20
2023-05-16T11:43:45.381Z,20.14
2023-05-16T11:46:15.323Z,20.11
2023-05-16T11:48:44.083Z,20.04
2023-05-16T11:51:11.592Z,20.03
2023-05-16T11:53:38.913Z,19.90
2023-05-16T11:56:08.578Z,19.82
2023-05-16T11:58:37.194Z,19.90
2023-05-16T12:01:05.882Z,19.99
2023-05-16T12:03:35.919Z,20.04
2023-05-16T12:06:08.358Z,20.17
2023-05-16T12:08:36.154Z,20.14
2023-05-16T12:11:03.877Z,20.03
2023-05-16T12:13:31.629Z,20.04
2023-05-16T12:16:01.540Z,20.12
2023-05-16T12:18:29.305Z,20.12
2023-05-16T12:20:56.889Z,20.18
2023-05-16T12:23:27.041Z,20.25
2023-05-16T12:25:57.348Z,20.20
2023-05-16T12:28:24.705Z,20.08
2023-05-16T12:30:52.089Z,19.94
2023-05-16T12:33:19.570Z,19.87
2023-05-16T12:35:48.269Z,19.93
2023-05-16T12:38:17.734Z,19.75
2023-05-16T12:40:45.752Z,19.73
2023-05-16T12:43:17.723Z,19.84
2023-05-16T12:45:55.818Z,19.87
2023-05-16T12:48:24.552Z,19.72
2023-05-16T12:50:52.049Z,19.61
2023-05-16T12:53:19.748Z,19.65
2023-05-16T12:55:50.204Z,19.61
2023-05-16T12:58:17.977Z,19.52
2023-05-16T13:00:45.511Z,19.23
2023-05-16T13:03:13.320Z,18.74
2023-05-16T13:05:41.443Z,18.49
2023-05-16T13:08:08.844Z,18.16
2023-05-16T13:10:36.433Z,17.97
2023-05-16T13:13:04.845Z,17.85
2023-05-16T13:15:32.518Z,17.50
2023-05-16T13:17:59.892Z,17.32
2023-05-16T13:20:27.288Z,17.13
2023-05-16T13:22:54.603Z,16.94
2023-05-16T13:25:21.920Z,16.83
2023-05-16T13:27:49.712Z,16.69
2023-05-16T13:30:16.956Z,16.60
2023-05-16T13:32:47.395Z,16.47
2023-05-16T13:35:14.647Z,16.37
2023-05-16T13:37:41.941Z,16.25
2023-05-16T13:40:10.742Z,16.20
2023-05-16T13:42:38.933Z,16.17
2023-05-16T13:45:07.272Z,16.14
2023-05-16T13:47:34.960Z,16.15
2023-05-16T13:50:09.482Z,16.19
2023-05-16T13:52:38.442Z,16.13
2023-05-16T13:55:06.481Z,16.00
2023-05-16T13:57:33.907Z,16.01
2023-05-16T14:00:24.873Z,16.04
2023-05-16T14:02:48.751Z,15.97
2023-05-16T14:05:16.173Z,15.95
2023-05-16T14:07:45.359Z,15.99
2023-05-16T14:10:14.126Z,16.03
2023-05-16T14:12:41.548Z,16.11
2023-05-16T14:15:09.398Z,16.22
2023-05-16T14:17:36.789Z,16.25
2023-05-16T14:20:09.703Z,16.23
2023-05-16T14:22:37.816Z,16.10
2023-05-16T14:25:06.567Z,16.24
2023-05-16T14:27:34.744Z,16.33
2023-05-16T14:30:02.287Z,16.22
2023-05-16T14:32:31.667Z,16.23
2023-05-16T14:34:59.047Z,16.25
2023-05-16T14:37:26.416Z,16.37
2023-05-16T14:39:54.807Z,16.41
2023-05-16T14:42:22.172Z,16.51
2023-05-16T14:44:49.986Z,16.61
2023-05-16T14:47:17.387Z,16.67
2023-05-16T14:49:44.729Z,16.74
2023-05-16T14:52:11.925Z,16.76
2023-05-16T14:54:39.527Z,16.85
2023-05-16T14:57:07.647Z,16.91
2023-05-16T14:59:35.209Z,16.82
2023-05-16T15:02:02.843Z,16.89
2023-05-16T15:04:30.311Z,16.89
2023-05-16T15:06:57.647Z,16.94
2023-05-16T15:09:25.093Z,16.90
2023-05-16T15:11:52.626Z,16.90
2023-05-16T15:14:19.882Z,16.91
2023-05-16T15:16:48.270Z,16.95
2023-05-16T15:19:15.922Z,17.00
2023-05-16T15:21:43.331Z,17.01
2023-05-16T15:24:10.883Z,16.89
2023-05-16T15:26:39.589Z,16.89
2023-05-16T15:29:06.916Z,16.91
2023-05-16T15:31:34.306Z,16.89
2023-05-16T15:34:01.612Z,16.80
2023-05-16T15:36:29.338Z,16.69
2023-05-16T15:38:56.567Z,16.72
2023-05-16T15:41:37.240Z,16.62
2023-05-16T15:44:11.166Z,16.59
2023-05-16T15:46:39.109Z,16.53
2023-05-16T15:49:06.676Z,16.58
2023-05-16T15:51:33.943Z,16.55
2023-05-16T15:54:02.492Z,16.59
2023-05-16T15:56:29.838Z,16.58
2023-05-16T15:58:57.341Z,16.60
2023-05-16T16:01:24.681Z,16.59
2023-05-16T16:03:52.222Z,16.61
2023-05-16T16:06:19.853Z,16.58
2023-05-16T16:08:47.270Z,16.60
2023-05-16T16:11:14.547Z,16.64
2023-05-16T16:13:42.071Z,16.64
2023-05-16T16:16:09.382Z,16.61
2023-05-16T16:18:36.713Z,16.55
2023-05-16T16:21:04.291Z,16.53
2023-05-16T16:23:32.211Z,16.48
2023-05-16T16:25:59.623Z,16.39
2023-05-16T16:28:27.381Z,16.31
2023-05-16T16:30:54.846Z,16.33
2023-05-16T16:33:22.165Z,16.29
2023-05-16T16:35:49.619Z,16.23
2023-05-16T16:38:17.785Z,16.21
2023-05-16T16:40:45.183Z,16.20
2023-05-16T16:43:12.544Z,16.05
2023-05-16T16:45:39.877Z,15.98
2023-05-16T16:48:09.456Z,15.88
2023-05-16T16:50:36.891Z,15.77
2023-05-16T16:53:04.848Z,15.71
2023-05-16T16:55:32.372Z,15.71
2023-05-16T16:57:59.714Z,15.64
2023-05-16T17:00:27.755Z,15.62
2023-05-16T17:02:55.429Z,15.61
2023-05-16T17:05:22.819Z,15.62
2023-05-16T17:07:50.754Z,15.58
2023-05-16T17:10:18.801Z,15.60
2023-05-16T17:12:49.578Z,15.58
2023-05-16T17:15:20.211Z,15.59
2023-05-16T17:17:49.556Z,15.55
2023-05-16T17:20:16.987Z,15.58
2023-05-16T17:22:45.083Z,15.60
2023-05-16T17:25:12.810Z,15.63
2023-05-16T17:27:41.149Z,15.64
2023-05-16T17:30:10.898Z,15.70
2023-05-16T17:32:39.542Z,15.68
2023-05-16T17:35:07.797Z,15.69
2023-05-16T17:37:35.199Z,15.66
2023-05-16T17:40:02.605Z,15.70
2023-05-16T17:42:30.884Z,15.69
2023-05-16T17:44:58.251Z,15.65
2023-05-16T17:47:26.071Z,15.66
2023-05-16T17:49:53.258Z,15.70
2023-05-16T17:52:22.464Z,15.70
2023-05-16T17:54:49.854Z,15.67
2023-05-16T17:57:17.170Z,15.63
2023-05-16T17:59:44.646Z,15.66
2023-05-16T18:02:15.538Z,15.69
2023-05-16T18:04:43.420Z,15.72
2023-05-16T18:07:10.926Z,15.75
2023-05-16T18:09:38.244Z,15.78
2023-05-16T18:12:06.053Z,15.79
2023-05-16T18:14:33.454Z,15.75
2023-05-16T18:17:00.881Z,15.78
2023-05-16T18:19:28.310Z,15.78
2023-05-16T18:21:55.811Z,15.74
2023-05-16T18:24:23.087Z,15.71
2023-05-16T18:26:51.125Z,15.74
2023-05-16T18:29:18.537Z,15.73
2023-05-16T18:31:46.055Z,15.68
2023-05-16T18:34:13.424Z,15.68
2023-05-16T18:36:40.939Z,15.68
2023-05-16T18:39:10.340Z,15.66
2023-05-16T18:41:37.749Z,15.62
2023-05-16T18:44:05.148Z,15.66
2023-05-16T18:46:35.558Z,15.66
2023-05-16T18:49:02.940Z,15.63
2023-05-16T18:51:30.427Z,15.61
2023-05-16T18:53:57.809Z,15.58
2023-05-16T18:56:25.086Z,15.58
2023-05-16T18:58:52.410Z,15.46
2023-05-16T19:01:22.707Z,15.49
2023-05-16T19:03:50.346Z,15.45
2023-05-16T19:06:17.846Z,15.45
2023-05-16T19:08:48.008Z,15.36
2023-05-16T19:11:17.805Z,15.35
2023-05-16T19:13:46.173Z,15.34
2023-05-16T19:16:16.478Z,15.26
2023-05-16T19:18:43.947Z,15.27
2023-05-16T19:21:13.716Z,15.28
2023-05-16T19:23:41.265Z,15.24
2023-05-16T19:26:08.581Z,15.25
2023-05-16T19:28:35.855Z,15.21
2023-05-16T19:31:03.257Z,15.18
2023-05-16T19:33:30.462Z,15.17
2023-05-16T19:35:58.907Z,15.17
2023-05-16T19:38:27.010Z,15.14
2023-05-16T19:40:54.844Z,15.14
2023-05-16T19:43:21.973Z,15.11
2023-05-16T19:45:49.806Z,15.08
2023-05-16T19:48:17.038Z,15.06
2023-05-16T19:50:44.800Z,15.06
2023-05-16T19:53:12.163Z,15.06
2023-05-16T19:55:39.676Z,15.07
2023-05-16T19:58:07.263Z,15.07
2023-05-16T20:00:34.589Z,15.08
2023-05-16T20:03:02.022Z,15.09
2023-05-16T20:05:29.764Z,15.12
2023-05-16T20:07:57.516Z,15.12
2023-05-16T20:10:25.100Z,15.12
2023-05-16T20:12:52.358Z,15.14
2023-05-16T20:15:19.656Z,15.12
2023-05-16T20:17:47.022Z,15.10
2023-05-16T20:20:14.365Z,15.06
2023-05-16T20:22:42.096Z,15.09
2023-05-16T20:25:10.668Z,15.11
2023-05-16T20:27:38.661Z,15.15
2023-05-16T20:30:07.122Z,15.17
2023-05-16T20:32:34.853Z,15.13
2023-05-16T20:35:04.586Z,15.11
2023-05-16T20:37:33.048Z,15.12
2023-05-16T20:40:00.443Z,15.09
2023-05-16T20:42:27.883Z,15.09
2023-05-16T20:44:55.145Z,15.06
2023-05-16T20:47:22.419Z,15.18
2023-05-16T20:49:49.809Z,15.11
2023-05-16T20:52:17.192Z,15.12
2023-05-16T20:54:44.480Z,15.15
2023-05-16T20:57:11.870Z,15.11
2023-05-16T20:59:39.219Z,15.10
2023-05-16T21:02:06.552Z,15.14
2023-05-16T21:04:33.940Z,15.20
2023-05-16T21:07:01.273Z,15.24
2023-05-16T21:09:28.641Z,15.23
2023-05-16T21:11:56.239Z,15.26
2023-05-16T21:14:23.521Z,15.29
2023-05-16T21:16:52.432Z,15.33
2023-05-16T21:19:19.924Z,15.29
2023-05-16T21:21:47.296Z,15.26
2023-05-16T21:24:14.696Z,15.19
2023-05-16T21:26:42.075Z,15.12
2023-05-16T21:29:09.356Z,15.06
2023-05-16T21:31:36.742Z,15.04
2023-05-16T21:34:04.193Z,15.01
2023-05-16T21:36:31.666Z,14.97
2023-05-16T21:38:58.985Z,14.95
2023-05-16T21:41:27.061Z,14.92
2023-05-16T21:43:54.511Z,14.90
2023-05-16T21:46:21.924Z,14.87
2023-05-16T21:48:49.350Z,14.82
2023-05-16T21:51:16.905Z,14.74
2023-05-16T21:53:46.950Z,14.67
2023-05-16T21:56:14.459Z,14.60
2023-05-16T21:58:42.766Z,14.59
2023-05-16T22:01:10.505Z,14.56
2023-05-16T22:03:37.876Z,14.55
2023-05-16T22:06:05.558Z,14.56
2023-05-16T22:08:32.938Z,14.53
2023-05-16T22:11:00.516Z,14.47
2023-05-16T22:13:27.810Z,14.50
2023-05-16T22:16:03.910Z,14.51
2023-05-16T22:18:33.376Z,14.50
2023-05-16T22:21:01.915Z,14.56
2023-05-16T22:23:29.312Z,14.53
2023-05-16T22:25:56.721Z,14.54
2023-05-16T22:28:24.173Z,14.52
2023-05-16T22:30:51.601Z,14.49
2023-05-16T22:33:19.067Z,14.53
2023-05-16T22:35:46.594Z,14.47
2023-05-16T22:38:13.904Z,14.45
2023-05-16T22:40:41.580Z,14.40
2023-05-16T22:43:08.978Z,14.44
2023-05-16T22:45:36.377Z,14.43
2023-05-16T22:48:04.127Z,14.35
2023-05-16T22:50:31.434Z,14.34
2023-05-16T22:52:58.819Z,14.30
2023-05-16T22:55:26.551Z,14.20
2023-05-16T22:57:57.369Z,14.17
2023-05-16T23:00:24.790Z,14.14
2023-05-16T23:02:52.901Z,14.07
2023-05-16T23:05:20.710Z,14.09
2023-05-16T23:07:50.532Z,14.08
2023-05-16T23:10:17.930Z,14.00
2023-05-16T23:12:45.268Z,13.99
2023-05-16T23:15:13.716Z,14.03
2023-05-16T23:17:41.219Z,14.01
2023-05-16T23:20:09.058Z,13.98
2023-05-16T23:22:36.363Z,14.03
2023-05-16T23:25:04.146Z,13.97
2023-05-16T23:27:32.073Z,13.97
2023-05-16T23:29:59.281Z,13.97
2023-05-16T23:32:26.536Z,13.95
2023-05-16T23:34:53.856Z,13.97
2023-05-16T23:37:21.345Z,13.91
2023-05-16T23:39:48.636Z,13.89
2023-05-16T23:42:16.018Z,13.89
2023-05-16T23:44:43.412Z,13.84
2023-05-16T23:47:11.095Z,13.74
2023-05-16T23:49:38.398Z,13.83
2023-05-16T23:52:06.400Z,13.77
2023-05-16T23:54:34.231Z,13.74
2023-05-16T23:57:01.648Z,13.72
2023-05-16T23:59:29.064Z,13.70
